Time;durP1;ratioP1;P1;durP2;ratioP2;P2;SDS_P1;SDS_P2;PMS_P1;PMS_P2;Temp;Humidity;BMP_temperature;BMP_pressure;BME280_temperature;BME280_humidity;BME280_pressure;Samples;Min_cycle;Max_cycle;Signal;HPM_P1;HPM_P2
2022/04/12 00:00:19;;;;;;;11.00;8.80;;;9.30;99.90;;;;;;5026014;28;20203;-79
2022/04/12 00:02:47;;;;;;;11.13;9.50;;;9.30;99.90;;;;;;5026908;28;20214;-78
2022/04/12 00:05:15;;;;;;;10.93;9.10;;;9.30;99.90;;;;;;5026252;28;20213;-79
2022/04/12 00:07:43;;;;;;;11.53;8.73;;;9.30;99.90;;;;;;5027525;28;20214;-78
2022/04/12 00:10:11;;;;;;;13.67;9.27;;;9.30;99.90;;;;;;5027499;28;20668;-79
2022/04/12 00:12:38;;;;;;;10.97;8.80;;;9.30;99.90;;;;;;5026094;28;20198;-78
2022/04/12 00:15:07;;;;;;;12.67;9.57;;;9.30;99.90;;;;;;5026939;28;20696;-78
2022/04/12 00:20:21;;;;;;;14.57;9.50;;;9.30;99.90;;;;;;5026369;28;20189;-77
2022/04/12 00:22:48;;;;;;;12.93;10.03;;;9.20;99.90;;;;;;5026701;28;20867;-79
2022/04/12 00:25:15;;;;;;;11.07;8.50;;;9.20;99.90;;;;;;5025918;28;20203;-78
2022/04/12 00:27:42;;;;;;;12.37;9.10;;;9.10;99.90;;;;;;5026214;28;20210;-77
2022/04/12 00:30:12;;;;;;;12.90;9.40;;;9.10;99.90;;;;;;5027163;28;20194;-77
2022/04/12 00:32:39;;;;;;;12.07;9.07;;;9.10;99.90;;;;;;5046254;28;20551;-77
2022/04/12 00:35:07;;;;;;;11.57;8.73;;;9.00;99.90;;;;;;5037872;28;20213;-77
2022/04/12 00:37:35;;;;;;;11.67;8.60;;;9.00;99.90;;;;;;5026539;28;20548;-77
2022/04/12 00:40:03;;;;;;;11.30;9.20;;;9.00;99.90;;;;;;5027595;28;20202;-77
2022/04/12 00:42:31;;;;;;;12.47;9.90;;;9.00;99.90;;;;;;5026174;28;20226;-77
2022/04/12 00:44:57;;;;;;;11.20;8.53;;;9.00;99.90;;;;;;5027027;28;20217;-77
2022/04/12 00:47:24;;;;;;;12.23;8.80;;;9.00;99.90;;;;;;5027602;28;20647;-77
2022/04/12 00:49:51;;;;;;;10.73;8.83;;;8.90;99.90;;;;;;5031382;28;20214;-77
2022/04/12 00:52:19;;;;;;;12.90;9.47;;;8.90;99.90;;;;;;5025908;28;20209;-78
2022/04/12 00:54:48;;;;;;;11.87;8.33;;;8.90;99.90;;;;;;5026288;28;20614;-77
2022/04/12 00:57:16;;;;;;;11.73;8.90;;;8.80;99.90;;;;;;5027516;28;20297;-77
2022/04/12 00:59:45;;;;;;;11.50;9.63;;;8.80;99.90;;;;;;5027613;28;20215;-78
2022/04/12 01:02:13;;;;;;;10.67;8.73;;;8.80;99.90;;;;;;5026126;28;20229;-77
2022/04/12 01:04:40;;;;;;;10.77;8.60;;;8.80;99.90;;;;;;5026813;28;20211;-77
2022/04/12 01:07:07;;;;;;;12.90;9.60;;;8.80;99.90;;;;;;5026267;28;20210;-77
2022/04/12 01:09:33;;;;;;;14.77;10.03;;;8.80;99.90;;;;;;5025240;28;20237;-77
2022/04/12 01:12:09;;;;;;;11.77;9.30;;;8.80;99.90;;;;;;5026424;28;20194;-77
2022/04/12 01:14:36;;;;;;;11.07;8.67;;;8.80;99.90;;;;;;5026630;28;20222;-77
2022/04/12 01:17:05;;;;;;;14.23;9.83;;;8.70;99.90;;;;;;5026658;28;20203;-77
2022/04/12 01:19:32;;;;;;;12.03;9.33;;;8.70;99.90;;;;;;5044171;28;20233;-77
2022/04/12 01:22:04;;;;;;;12.33;9.27;;;8.70;99.90;;;;;;5039532;28;20218;-76
2022/04/12 01:24:33;;;;;;;11.13;9.00;;;8.70;99.90;;;;;;5025814;28;20203;-78
2022/04/12 01:27:00;;;;;;;12.90;9.50;;;8.70;99.90;;;;;;5026116;28;20218;-77
2022/04/12 01:29:32;;;;;;;10.07;8.40;;;8.70;99.90;;;;;;5025563;28;20205;-77
2022/04/12 01:31:58;;;;;;;11.40;9.07;;;8.70;99.90;;;;;;5026630;28;20198;-77
2022/04/12 01:34:25;;;;;;;12.30;8.47;;;8.70;99.90;;;;;;5025817;28;20309;-77
2022/04/12 01:36:52;;;;;;;12.27;9.03;;;8.70;99.90;;;;;;5026033;28;20214;-76
2022/04/12 01:39:20;;;;;;;11.47;9.03;;;8.70;99.90;;;;;;5026389;28;20202;-77
2022/04/12 01:41:49;;;;;;;11.80;8.47;;;8.60;99.90;;;;;;5026460;23;20413;-78
2022/04/12 01:44:16;;;;;;;9.30;8.10;;;8.60;99.90;;;;;;5024797;28;20202;-77
2022/04/12 01:46:42;;;;;;;11.73;9.47;;;8.60;99.90;;;;;;5020019;28;20599;-77
2022/04/12 01:49:09;;;;;;;12.53;9.63;;;8.60;99.90;;;;;;5011877;28;20258;-79
2022/04/12 01:51:36;;;;;;;12.07;9.03;;;8.70;99.90;;;;;;5004891;28;20617;-78
2022/04/12 01:54:03;;;;;;;13.67;9.40;;;8.70;99.90;;;;;;5005702;28;20203;-79
2022/04/12 01:56:31;;;;;;;13.73;9.33;;;8.70;99.90;;;;;;5005374;28;20221;-78
2022/04/12 01:58:59;;;;;;;12.43;9.93;;;8.70;99.90;;;;;;5005905;28;20215;-77
2022/04/12 02:01:26;;;;;;;11.70;9.10;;;8.60;99.90;;;;;;5004831;28;20230;-78
2022/04/12 02:03:53;;;;;;;14.93;9.53;;;8.70;99.90;;;;;;5018043;28;20210;-78
2022/04/12 02:06:19;;;;;;;12.40;9.10;;;8.70;99.90;;;;;;5023796;28;20231;-78
2022/04/12 02:08:46;;;;;;;11.13;9.53;;;8.70;99.90;;;;;;5025005;28;20210;-77
2022/04/12 02:11:13;;;;;;;12.87;9.03;;;8.70;99.90;;;;;;5014007;28;20207;-78
2022/04/12 02:13:40;;;;;;;12.50;9.20;;;8.70;99.90;;;;;;5005109;28;20253;-79
2022/04/12 02:16:08;;;;;;;11.93;8.50;;;8.70;99.90;;;;;;5005369;28;20215;-78
2022/04/12 02:18:35;;;;;;;12.13;8.67;;;8.60;99.90;;;;;;5005021;28;20278;-78
2022/04/12 02:21:02;;;;;;;11.07;8.60;;;8.60;99.90;;;;;;5004035;28;20206;-78
2022/04/12 02:23:29;;;;;;;10.97;8.73;;;8.60;99.90;;;;;;5040420;28;20229;-79
2022/04/12 02:25:56;;;;;;;11.00;8.93;;;8.60;99.90;;;;;;5044339;28;20202;-78
2022/04/12 02:28:23;;;;;;;12.93;8.47;;;8.60;99.90;;;;;;5044022;28;20194;-78
2022/04/12 02:30:49;;;;;;;13.23;9.93;;;8.50;99.90;;;;;;5024012;28;20217;-78
2022/04/12 02:33:17;;;;;;;11.40;8.00;;;8.50;99.90;;;;;;5004200;28;20198;-78
2022/04/12 02:35:44;;;;;;;13.23;9.33;;;8.50;99.90;;;;;;5004546;28;20682;-78
2022/04/12 02:38:13;;;;;;;11.73;9.10;;;8.50;99.90;;;;;;5004093;28;20224;-78
2022/04/12 02:40:40;;;;;;;10.37;8.20;;;8.40;99.90;;;;;;5004348;28;20603;-78
2022/04/12 02:43:07;;;;;;;9.73;8.13;;;8.40;99.90;;;;;;5004671;28;20214;-79
2022/04/12 02:45:33;;;;;;;11.47;8.83;;;8.40;99.90;;;;;;5005073;28;20199;-78
2022/04/12 02:48:00;;;;;;;11.07;8.87;;;8.30;99.90;;;;;;5010932;28;20210;-78
2022/04/12 02:50:29;;;;;;;11.43;9.20;;;8.30;99.90;;;;;;5023990;28;20218;-76
2022/04/12 02:52:55;;;;;;;14.47;9.10;;;8.30;99.90;;;;;;5024648;28;20207;-77
2022/04/12 02:55:22;;;;;;;11.63;9.20;;;8.30;99.90;;;;;;5019511;28;20211;-77
2022/04/12 02:57:49;;;;;;;12.90;8.67;;;8.40;99.90;;;;;;5003854;28;20195;-78
2022/04/12 03:00:17;;;;;;;12.50;8.47;;;8.40;99.90;;;;;;5004999;28;20218;-77
2022/04/12 03:02:43;;;;;;;13.80;9.07;;;8.30;99.90;;;;;;5004704;28;20231;-78
2022/04/12 03:05:10;;;;;;;13.23;9.73;;;8.30;99.90;;;;;;5005159;28;20604;-78
2022/04/12 03:07:38;;;;;;;10.70;8.37;;;8.30;99.90;;;;;;5005463;28;20265;-77
2022/04/12 03:10:06;;;;;;;10.23;8.27;;;8.20;99.90;;;;;;5004414;28;20318;-78
2022/04/12 03:12:33;;;;;;;12.07;9.53;;;8.20;99.90;;;;;;5005112;28;20203;-79
2022/04/12 03:15:02;;;;;;;12.13;9.00;;;8.20;99.90;;;;;;5017066;28;20221;-76
2022/04/12 03:17:29;;;;;;;9.50;8.03;;;8.10;99.90;;;;;;5020133;28;20634;-78
2022/04/12 03:19:56;;;;;;;11.30;9.07;;;8.10;99.90;;;;;;5021011;28;20222;-78
2022/04/12 03:22:23;;;;;;;13.97;9.20;;;8.20;99.90;;;;;;5019161;28;20226;-77
2022/04/12 03:24:51;;;;;;;10.63;8.50;;;8.10;99.90;;;;;;5020870;28;20214;-77
2022/04/12 03:27:18;;;;;;;13.33;8.37;;;8.10;99.90;;;;;;5018909;28;20886;-78
2022/04/12 03:29:45;;;;;;;10.90;8.70;;;8.10;99.90;;;;;;5017672;28;20216;-78
2022/04/12 03:32:11;;;;;;;13.60;9.70;;;8.10;99.90;;;;;;5016008;28;20203;-78
2022/04/12 03:34:40;;;;;;;11.63;8.33;;;8.10;99.90;;;;;;5018900;28;20226;-78
2022/04/12 03:37:07;;;;;;;9.80;8.07;;;8.00;99.90;;;;;;5018500;28;20215;-77
2022/04/12 03:39:34;;;;;;;12.23;7.93;;;8.00;99.90;;;;;;5019832;28;20205;-78
2022/04/12 03:42:04;;;;;;;11.63;8.70;;;8.00;99.90;;;;;;5018231;28;20243;-78
2022/04/12 03:44:31;;;;;;;10.03;7.70;;;8.00;99.90;;;;;;5015642;28;20687;-78
2022/04/12 03:46:58;;;;;;;11.93;7.70;;;8.00;99.90;;;;;;5016054;28;20503;-78
2022/04/12 03:49:24;;;;;;;11.60;8.87;;;8.00;99.90;;;;;;5018363;28;20239;-77
2022/04/12 03:51:51;;;;;;;10.87;8.10;;;8.00;99.90;;;;;;5018617;28;20206;-78
2022/04/12 03:54:18;;;;;;;10.77;8.30;;;8.00;99.90;;;;;;5018096;28;20218;-79
2022/04/12 03:56:44;;;;;;;10.70;8.70;;;8.00;99.90;;;;;;5015364;28;20234;-79
2022/04/12 03:59:13;;;;;;;10.67;8.83;;;8.00;99.90;;;;;;5003917;28;20697;-78
2022/04/12 04:01:40;;;;;;;11.63;8.70;;;8.00;99.90;;;;;;5005075;28;20221;-78
2022/04/12 04:04:06;;;;;;;10.40;7.70;;;8.00;99.90;;;;;;5004478;28;20282;-78
2022/04/12 04:06:33;;;;;;;8.37;7.27;;;8.00;99.90;;;;;;5004080;28;20218;-78
2022/04/12 04:09:00;;;;;;;10.30;8.00;;;8.00;99.90;;;;;;5003966;28;20214;-78
2022/04/12 04:11:27;;;;;;;9.63;8.27;;;8.00;99.90;;;;;;5002879;28;20196;-79
2022/04/12 04:13:54;;;;;;;13.83;8.07;;;8.00;99.90;;;;;;5004123;28;20302;-79
2022/04/12 04:16:22;;;;;;;9.00;7.90;;;8.10;99.90;;;;;;5003867;28;20209;-79
2022/04/12 04:18:48;;;;;;;9.10;7.90;;;8.00;99.90;;;;;;5003689;28;20235;-79
2022/04/12 04:21:15;;;;;;;9.27;7.70;;;8.00;99.90;;;;;;5003457;28;20214;-79
2022/04/12 04:23:42;;;;;;;9.33;7.43;;;8.00;99.90;;;;;;5003080;28;20229;-78
2022/04/12 04:26:09;;;;;;;9.60;7.33;;;8.00;99.90;;;;;;5003692;28;20210;-78
2022/04/12 04:28:35;;;;;;;10.30;8.40;;;8.00;99.90;;;;;;5024184;28;20213;-79
2022/04/12 04:31:02;;;;;;;12.53;8.03;;;8.00;99.90;;;;;;5026682;28;20895;-79
2022/04/12 04:33:30;;;;;;;10.43;7.67;;;7.90;99.90;;;;;;5026705;28;20198;-77
2022/04/12 04:35:57;;;;;;;9.30;7.93;;;7.90;99.90;;;;;;5015695;28;20288;-78
2022/04/12 04:38:24;;;;;;;10.03;7.27;;;7.90;99.90;;;;;;5007816;28;20600;-78
2022/04/12 04:40:50;;;;;;;11.40;8.03;;;7.90;99.90;;;;;;5005965;28;20910;-78
2022/04/12 04:43:17;;;;;;;9.63;8.10;;;7.80;99.90;;;;;;5018040;28;20261;-78
2022/04/12 04:45:44;;;;;;;13.07;7.80;;;7.80;99.90;;;;;;5027079;28;20206;-78
2022/04/12 04:48:11;;;;;;;10.50;7.97;;;7.80;99.90;;;;;;5026059;28;20801;-78
2022/04/12 04:50:40;;;;;;;10.47;7.77;;;7.80;99.90;;;;;;5012726;28;20218;-78
2022/04/12 04:53:10;;;;;;;10.73;8.03;;;7.80;99.90;;;;;;5007503;28;20207;-79
2022/04/12 04:55:37;;;;;;;10.10;7.60;;;7.80;99.90;;;;;;5006073;28;20548;-77
2022/04/12 04:58:05;;;;;;;10.87;7.93;;;7.90;99.90;;;;;;5007188;28;20218;-76
2022/04/12 05:00:34;;;;;;;10.53;7.97;;;7.90;99.90;;;;;;5006567;28;20223;-78
2022/04/12 05:03:02;;;;;;;11.10;8.53;;;7.90;99.90;;;;;;5007223;28;20293;-77
2022/04/12 05:05:31;;;;;;;7.90;7.00;;;7.90;99.90;;;;;;5006739;28;20214;-78
2022/04/12 05:07:59;;;;;;;10.37;7.10;;;7.90;99.90;;;;;;5008471;28;20242;-78
2022/04/12 05:10:29;;;;;;;10.20;8.07;;;7.90;99.90;;;;;;5015259;28;20586;-78
2022/04/12 05:12:56;;;;;;;9.70;7.77;;;7.90;99.90;;;;;;5006467;28;20211;-79
2022/04/12 05:15:24;;;;;;;10.80;7.70;;;7.90;99.90;;;;;;5005980;28;20874;-79
2022/04/12 05:17:51;;;;;;;9.53;7.33;;;7.90;99.90;;;;;;5006425;28;20246;-79
2022/04/12 05:20:19;;;;;;;7.93;6.50;;;7.90;99.90;;;;;;5006624;28;20587;-79
2022/04/12 05:22:46;;;;;;;8.17;6.63;;;7.80;99.90;;;;;;5006062;28;20258;-79
2022/04/12 05:25:14;;;;;;;10.80;7.20;;;7.80;99.90;;;;;;5006757;28;20203;-79
2022/04/12 05:27:43;;;;;;;10.77;7.93;;;7.80;99.90;;;;;;5006546;28;20206;-79
2022/04/12 05:30:12;;;;;;;8.63;6.87;;;7.80;99.90;;;;;;5006335;28;20666;-79
2022/04/12 05:32:40;;;;;;;9.17;7.23;;;7.80;99.90;;;;;;5005848;28;20935;-79
2022/04/12 05:35:07;;;;;;;12.03;8.70;;;7.80;99.90;;;;;;5006539;28;20610;-79
2022/04/12 05:37:41;;;;;;;10.53;7.50;;;7.80;99.90;;;;;;5005057;28;20203;-79
2022/04/12 05:40:10;;;;;;;8.90;6.73;;;7.80;99.90;;;;;;5004701;28;20210;-79
2022/04/12 05:42:38;;;;;;;12.23;7.50;;;7.80;99.90;;;;;;5006090;28;20281;-79
2022/04/12 05:45:06;;;;;;;13.13;7.83;;;7.80;99.90;;;;;;5005534;28;20200;-78
2022/04/12 05:47:41;;;;;;;8.43;6.60;;;7.80;99.90;;;;;;5008879;28;20215;-78
2022/04/12 05:50:09;;;;;;;9.30;7.00;;;7.80;99.90;;;;;;5025267;28;20819;-78
2022/04/12 05:52:36;;;;;;;8.77;7.23;;;7.80;99.90;;;;;;5013518;28;20204;-79
2022/04/12 05:55:03;;;;;;;10.03;7.27;;;7.90;99.90;;;;;;5005301;28;20204;-78
2022/04/12 05:57:29;;;;;;;10.53;7.57;;;7.90;99.90;;;;;;5005882;28;20215;-78
2022/04/12 05:59:58;;;;;;;11.53;7.67;;;7.90;99.90;;;;;;5005653;28;20231;-78
2022/04/12 06:05:47;;;;;;;9.63;7.70;;;8.00;99.90;;;;;;5044236;28;20954;-78
2022/04/12 06:08:14;;;;;;;10.13;7.80;;;8.10;99.90;;;;;;5044966;28;20201;-79
2022/04/12 06:10:41;;;;;;;13.93;8.40;;;8.10;99.90;;;;;;5044101;28;20217;-79
2022/04/12 06:13:08;;;;;;;11.13;7.57;;;8.20;99.90;;;;;;5028250;28;20206;-79
2022/04/12 06:15:38;;;;;;;10.17;7.97;;;8.30;99.90;;;;;;5025025;28;20210;-79
2022/04/12 06:18:06;;;;;;;15.27;8.13;;;8.40;99.90;;;;;;5024316;28;20222;-78
2022/04/12 06:20:33;;;;;;;13.37;8.17;;;8.50;99.90;;;;;;5020037;28;20209;-79
2022/04/12 06:23:00;;;;;;;11.77;7.93;;;8.60;99.90;;;;;;5025212;28;20234;-79
2022/04/12 06:25:27;;;;;;;14.67;8.47;;;8.70;99.90;;;;;;5023897;28;20218;-78
2022/04/12 06:27:53;;;;;;;14.87;9.07;;;8.80;99.90;;;;;;5024304;28;20827;-78
2022/04/12 06:30:22;;;;;;;11.30;8.10;;;8.90;99.90;;;;;;5024066;28;20610;-78
2022/04/12 06:32:51;;;;;;;12.57;8.50;;;9.00;99.90;;;;;;5024131;28;20206;-78
2022/04/12 06:35:18;;;;;;;11.67;7.83;;;9.10;99.90;;;;;;5024295;28;20206;-79
2022/04/12 06:37:46;;;;;;;15.70;8.10;;;9.30;99.90;;;;;;5023440;28;20307;-78
2022/04/12 06:40:17;;;;;;;11.07;8.07;;;9.40;99.90;;;;;;5023632;28;20207;-78
2022/04/12 06:42:44;;;;;;;9.90;7.37;;;9.50;99.90;;;;;;5024497;28;20225;-78
2022/04/12 06:45:12;;;;;;;12.13;8.43;;;9.60;99.90;;;;;;5024277;28;20622;-80
2022/04/12 06:47:39;;;;;;;9.43;7.53;;;9.70;99.90;;;;;;5027641;28;20210;-78
2022/04/12 06:50:09;;;;;;;10.07;7.23;;;9.80;99.90;;;;;;5040579;28;20198;-76
2022/04/12 06:52:37;;;;;;;10.60;6.57;;;9.90;99.90;;;;;;5024408;28;20272;-78
2022/04/12 06:55:04;;;;;;;10.73;7.43;;;10.00;99.90;;;;;;5024288;28;20238;-79
2022/04/12 06:57:32;;;;;;;12.70;8.20;;;10.10;99.90;;;;;;5034334;22;20244;-77
2022/04/12 06:59:59;;;;;;;7.53;6.27;;;10.20;99.90;;;;;;5015796;28;20690;-78
2022/04/12 07:02:29;;;;;;;9.67;6.37;;;10.30;99.90;;;;;;5009463;28;20207;-78
2022/04/12 07:04:56;;;;;;;10.40;7.03;;;10.40;99.90;;;;;;5009079;28;20199;-78
2022/04/12 07:07:24;;;;;;;10.47;6.97;;;10.40;99.90;;;;;;5007744;28;20199;-80
2022/04/12 07:09:51;;;;;;;10.87;7.03;;;10.50;99.90;;;;;;5007156;28;20214;-78
2022/04/12 07:12:18;;;;;;;12.43;7.57;;;10.60;99.90;;;;;;5004923;28;20316;-78
2022/04/12 07:14:45;;;;;;;9.13;6.80;;;10.70;99.90;;;;;;5004325;28;20196;-78
2022/04/12 07:17:15;;;;;;;11.07;7.80;;;10.70;99.90;;;;;;5004190;28;20544;-78
2022/04/12 07:19:42;;;;;;;10.60;7.00;;;10.80;99.90;;;;;;4984222;28;20514;-80
2022/04/12 07:22:09;;;;;;;10.40;6.93;;;10.90;99.90;;;;;;4983653;28;20215;-79
2022/04/12 07:24:37;;;;;;;11.80;7.10;;;11.10;99.90;;;;;;4984364;28;20314;-79
2022/04/12 07:27:04;;;;;;;14.37;6.93;;;11.30;99.90;;;;;;4984459;28;20263;-78
2022/04/12 07:29:31;;;;;;;9.20;7.00;;;11.50;99.90;;;;;;4983519;28;20203;-78
2022/04/12 07:32:01;;;;;;;9.90;7.10;;;11.70;99.90;;;;;;4984297;28;20326;-78
2022/04/12 07:34:28;;;;;;;9.10;7.13;;;11.90;99.90;;;;;;4984621;28;20208;-78
2022/04/12 07:36:55;;;;;;;9.40;7.10;;;12.10;99.90;;;;;;4983831;28;20211;-78
2022/04/12 07:39:22;;;;;;;10.17;6.73;;;12.20;99.90;;;;;;4984390;28;20199;-79
2022/04/12 07:41:50;;;;;;;11.83;6.37;;;12.40;99.90;;;;;;4984572;28;20208;-78
2022/04/12 07:44:19;;;;;;;9.07;6.23;;;12.60;99.90;;;;;;4984204;28;20220;-78
2022/04/12 07:46:46;;;;;;;8.20;6.30;;;12.80;99.90;;;;;;4984175;28;20538;-79
2022/04/12 07:49:13;;;;;;;11.13;7.10;;;12.90;99.90;;;;;;5000809;28;20205;-78
2022/04/12 07:51:41;;;;;;;10.50;6.90;;;13.10;99.90;;;;;;4986407;28;20208;-77
2022/04/12 07:54:08;;;;;;;7.70;6.53;;;13.20;99.90;;;;;;4984288;28;20207;-79
2022/04/12 07:56:35;;;;;;;10.03;6.97;;;13.30;99.90;;;;;;4983053;28;20987;-78
2022/04/12 07:59:03;;;;;;;11.13;7.00;;;13.30;99.90;;;;;;4983929;28;20287;-79
2022/04/12 08:01:30;;;;;;;8.50;6.47;;;13.50;99.90;;;;;;4983970;28;20196;-78
2022/04/12 08:03:57;;;;;;;12.67;6.30;;;13.60;99.90;;;;;;4986802;28;20243;-78
2022/04/12 08:06:24;;;;;;;7.70;6.50;;;13.80;99.90;;;;;;4988078;28;20208;-78
2022/04/12 08:08:51;;;;;;;10.10;6.67;;;14.00;99.90;;;;;;4987938;28;20728;-78
2022/04/12 08:11:19;;;;;;;9.57;6.30;;;14.20;99.90;;;;;;4986546;28;20330;-78
2022/04/12 08:13:46;;;;;;;8.80;5.53;;;14.40;99.90;;;;;;4987682;28;20284;-79
2022/04/12 08:16:17;;;;;;;10.47;6.90;;;14.70;99.90;;;;;;4987965;28;20210;-78
2022/04/12 08:18:44;;;;;;;11.37;6.60;;;15.00;99.90;;;;;;4986774;28;20235;-79
2022/04/12 08:21:14;;;;;;;11.13;6.80;;;15.10;99.90;;;;;;4987588;28;22248;-79
2022/04/12 08:23:40;;;;;;;13.03;6.63;;;15.20;99.90;;;;;;4993627;28;20258;-79
2022/04/12 08:26:09;;;;;;;13.60;7.53;;;15.30;99.90;;;;;;4998065;28;20710;-79
2022/04/12 08:28:36;;;;;;;9.70;6.67;;;15.50;99.90;;;;;;4986642;28;20204;-78
2022/04/12 08:31:03;;;;;;;13.10;6.57;;;15.60;99.90;;;;;;5000715;28;20218;-78
2022/04/12 08:33:31;;;;;;;10.43;6.90;;;15.90;99.90;;;;;;5022970;22;20249;-78
2022/04/12 08:35:59;;;;;;;9.77;5.75;;;16.00;99.90;;;;;;5026454;28;20212;-80
2022/04/12 08:38:26;;;;;;;8.63;6.22;;;15.90;99.90;;;;;;5008106;28;21067;-79
2022/04/12 08:40:54;;;;;;;10.82;6.40;;;15.90;99.90;;;;;;5006233;28;20204;-78
2022/04/12 08:43:25;;;;;;;11.55;6.50;;;16.00;99.90;;;;;;5005877;28;20393;-78
2022/04/12 08:45:52;;;;;;;7.00;6.03;;;16.30;99.90;;;;;;5005505;28;20647;-79
2022/04/12 08:48:19;;;;;;;10.85;6.43;;;16.50;99.90;;;;;;5014979;28;20195;-79
2022/04/12 08:50:48;;;;;;;8.63;6.20;;;16.80;99.90;;;;;;5006725;28;20215;-79
2022/04/12 08:53:17;;;;;;;11.60;6.30;;;16.90;99.90;;;;;;5005065;28;20374;-78
2022/04/12 08:55:45;;;;;;;9.75;6.63;;;16.90;99.90;;;;;;5005828;28;20219;-78
2022/04/12 08:58:12;;;;;;;14.05;6.60;;;17.30;99.90;;;;;;5006392;28;20243;-78
2022/04/12 09:00:39;;;;;;;9.07;6.63;;;17.50;99.90;;;;;;5004710;28;20206;-79
2022/04/12 09:03:06;;;;;;;11.43;6.63;;;17.50;99.90;;;;;;5005992;28;20203;-78
2022/04/12 09:05:34;;;;;;;10.82;6.22;;;17.70;99.90;;;;;;5005514;28;20207;-78
2022/04/12 09:08:02;;;;;;;8.77;5.47;;;18.00;99.90;;;;;;5005582;28;20999;-79
2022/04/12 09:10:36;;;;;;;9.90;6.68;;;18.20;99.90;;;;;;5011748;28;20625;-78
2022/04/12 09:13:10;;;;;;;9.68;6.30;;;18.50;99.90;;;;;;5025523;28;20214;-78
2022/04/12 09:15:43;;;;;;;6.78;5.28;;;18.80;99.90;;;;;;5024759;28;20249;-78
2022/04/12 09:18:11;;;;;;;9.68;6.13;;;18.90;99.90;;;;;;5018257;28;20227;-78
2022/04/12 09:20:38;;;;;;;12.90;6.97;;;19.00;99.90;;;;;;5005497;28;20217;-78
2022/04/12 09:23:16;;;;;;;9.10;6.35;;;19.20;99.90;;;;;;5005014;28;20262;-79
2022/04/12 09:25:54;;;;;;;9.13;6.88;;;19.30;99.90;;;;;;5004774;28;20211;-78
2022/04/12 09:28:21;;;;;;;8.13;6.22;;;19.40;99.90;;;;;;5004574;28;20932;-78
2022/04/12 09:30:48;;;;;;;9.20;6.18;;;19.50;99.90;;;;;;5005278;28;20214;-78
2022/04/12 09:33:36;;;;;;;10.60;5.15;;;19.30;99.90;;;;;;5005530;28;20249;-79
2022/04/12 09:36:04;;;;;;;8.93;4.20;;;19.10;99.90;;;;;;5004675;28;20214;-78
2022/04/12 09:38:34;;;;;;;8.93;4.75;;;19.10;99.90;;;;;;5005305;28;20222;-78
2022/04/12 09:41:18;;;;;;;6.53;4.47;;;18.70;99.90;;;;;;5005805;28;20195;-80
2022/04/12 09:43:56;;;;;;;9.00;5.45;;;18.70;99.90;;;;;;5004587;28;21078;-78
2022/04/12 09:46:24;;;;;;;7.63;4.43;;;18.70;99.90;;;;;;5016967;28;20202;-79
2022/04/12 09:48:52;;;;;;;8.93;5.10;;;18.60;99.90;;;;;;5017955;28;20581;-78
2022/04/12 09:51:22;;;;;;;7.88;5.32;;;18.50;99.90;;;;;;5024841;28;20265;-79
2022/04/12 09:53:51;;;;;;;7.25;5.32;;;18.60;99.90;;;;;;5014557;28;20266;-78
2022/04/12 09:56:20;;;;;;;10.15;5.40;;;18.60;99.90;;;;;;5004511;28;20199;-78
2022/04/12 09:58:48;;;;;;;8.18;4.75;;;18.80;99.90;;;;;;5005001;28;20218;-80
2022/04/12 10:01:16;;;;;;;7.30;4.70;;;19.00;99.90;;;;;;5004391;28;20250;-78
2022/04/12 10:03:47;;;;;;;7.25;4.72;;;19.20;99.90;;;;;;5005295;28;20300;-78
2022/04/12 10:06:17;;;;;;;6.43;4.50;;;19.50;99.90;;;;;;5005120;28;20196;-78
2022/04/12 10:08:45;;;;;;;6.20;3.88;;;19.80;99.90;;;;;;5005555;28;20204;-79
2022/04/12 10:11:14;;;;;;;6.35;4.45;;;20.10;99.90;;;;;;5004578;28;20208;-77
2022/04/12 10:13:41;;;;;;;6.80;4.40;;;20.20;99.90;;;;;;5004456;28;20305;-79
2022/04/12 10:16:09;;;;;;;5.28;4.07;;;20.30;99.90;;;;;;5004528;28;20823;-79
2022/04/12 10:18:37;;;;;;;9.52;4.72;;;20.30;99.90;;;;;;5003885;28;20223;-78
2022/04/12 10:21:04;;;;;;;5.05;3.63;;;20.30;99.90;;;;;;5004072;28;20203;-78
2022/04/12 10:23:33;;;;;;;6.60;4.00;;;20.40;99.90;;;;;;5003799;28;20207;-78
2022/04/12 10:26:00;;;;;;;8.32;4.05;;;20.50;99.90;;;;;;5003648;28;20246;-79
2022/04/12 10:28:30;;;;;;;8.02;4.53;;;20.50;99.90;;;;;;5004652;28;20207;-79
2022/04/12 10:31:08;;;;;;;5.22;4.05;;;20.50;99.90;;;;;;5004601;28;20207;-78
2022/04/12 10:33:35;;;;;;;5.95;4.13;;;20.50;99.90;;;;;;5003949;28;20243;-79
2022/04/12 10:36:05;;;;;;;5.18;3.22;;;20.30;99.90;;;;;;5005001;28;20214;-79
2022/04/12 10:38:40;;;;;;;5.90;3.58;;;20.20;99.90;;;;;;5003292;28;20211;-79
2022/04/12 10:41:16;;;;;;;5.22;3.38;;;20.10;99.90;;;;;;5004392;28;20206;-79
2022/04/12 10:43:44;;;;;;;5.68;3.65;;;20.00;99.90;;;;;;5004462;28;20787;-78
2022/04/12 10:46:15;;;;;;;5.47;3.58;;;20.30;99.90;;;;;;5004366;28;20207;-79
2022/04/12 10:48:41;;;;;;;7.82;4.10;;;20.50;99.90;;;;;;5016494;28;20203;-77
2022/04/12 10:51:08;;;;;;;7.75;3.78;;;20.70;99.90;;;;;;5010721;28;20538;-78
2022/04/12 10:53:56;;;;;;;8.13;4.25;;;20.60;99.90;;;;;;5003503;28;20192;-79
2022/04/12 10:56:26;;;;;;;4.88;3.10;;;20.70;99.90;;;;;;5003441;28;20207;-79
2022/04/12 10:58:54;;;;;;;5.07;3.38;;;20.50;99.90;;;;;;5003911;28;20219;-79
2022/04/12 11:01:35;;;;;;;4.82;3.35;;;20.30;99.90;;;;;;5003637;28;20500;-78
2022/04/12 11:04:03;;;;;;;6.88;3.88;;;20.30;99.90;;;;;;5003466;28;20207;-79
2022/04/12 11:06:31;;;;;;;5.20;3.78;;;20.30;99.90;;;;;;5002938;28;20307;-79
2022/04/12 11:09:10;;;;;;;6.50;4.05;;;20.20;99.90;;;;;;5005500;28;20202;-77
2022/04/12 11:11:41;;;;;;;4.70;3.65;;;20.20;99.90;;;;;;5017908;28;20526;-78
2022/04/12 11:14:27;;;;;;;7.88;4.82;;;20.20;99.90;;;;;;5005953;28;20210;-77
2022/04/12 11:16:58;;;;;;;8.35;5.25;;;20.20;99.90;;;;;;5003706;28;20211;-78
2022/04/12 11:19:26;;;;;;;7.32;5.80;;;20.10;99.90;;;;;;5003283;28;20322;-78
2022/04/12 11:22:03;;;;;;;6.90;5.32;;;20.30;99.90;;;;;;5003453;28;20199;-77
2022/04/12 11:24:30;;;;;;;8.73;6.35;;;20.40;99.90;;;;;;5003538;28;20221;-78
2022/04/12 11:27:05;;;;;;;7.80;5.72;;;20.30;99.90;;;;;;5003814;28;20611;-78
2022/04/12 11:29:34;;;;;;;7.35;5.38;;;20.30;99.90;;;;;;5003467;28;20203;-78
2022/04/12 11:32:01;;;;;;;7.57;5.38;;;20.30;99.90;;;;;;5003804;28;20210;-79
2022/04/12 11:34:30;;;;;;;8.50;4.80;;;20.30;99.90;;;;;;5002437;28;20238;-79
2022/04/12 11:36:58;;;;;;;10.00;5.43;;;20.10;99.90;;;;;;5003493;28;20294;-79
2022/04/12 11:39:26;;;;;;;8.18;5.75;;;19.90;99.90;;;;;;5007095;28;20226;-78
2022/04/12 11:41:57;;;;;;;7.47;5.60;;;19.80;99.90;;;;;;5007440;28;20214;-78
2022/04/12 11:44:24;;;;;;;8.93;6.68;;;19.90;99.90;;;;;;5007372;28;20253;-78
2022/04/12 11:46:58;;;;;;;10.07;6.90;;;20.00;99.90;;;;;;5007388;28;20650;-79
2022/04/12 11:49:29;;;;;;;9.63;6.78;;;20.00;99.90;;;;;;5024766;28;20311;-78
2022/04/12 11:51:57;;;;;;;10.07;7.18;;;20.10;99.90;;;;;;5010217;28;20502;-79
2022/04/12 11:54:26;;;;;;;13.15;7.88;;;20.10;99.90;;;;;;5007121;28;20207;-78
2022/04/12 11:56:54;;;;;;;8.80;6.90;;;20.20;99.90;;;;;;5006385;28;20771;-78
2022/04/12 11:59:21;;;;;;;11.90;7.00;;;20.30;99.90;;;;;;5006645;28;20195;-78
2022/04/12 12:01:48;;;;;;;8.95;6.93;;;20.40;99.90;;;;;;5006811;28;20210;-78
2022/04/12 12:04:16;;;;;;;9.13;6.03;;;20.60;99.90;;;;;;5006182;28;20203;-79
2022/04/12 12:06:56;;;;;;;8.77;6.82;;;20.80;99.90;;;;;;5006759;28;20253;-78
2022/04/12 12:09:23;;;;;;;10.32;6.55;;;21.00;99.90;;;;;;5006664;28;20309;-78
2022/04/12 12:11:50;;;;;;;8.60;6.43;;;21.30;99.90;;;;;;5005812;28;20247;-78
2022/04/12 12:14:17;;;;;;;12.32;6.78;;;21.40;99.90;;;;;;5006047;28;20215;-78
2022/04/12 12:16:43;;;;;;;13.13;6.47;;;21.60;99.90;;;;;;5006140;28;20214;-79
2022/04/12 12:19:14;;;;;;;10.00;7.72;;;21.80;99.90;;;;;;5007038;28;20246;-77
2022/04/12 12:21:45;;;;;;;8.65;6.20;;;21.80;99.90;;;;;;5006775;28;20631;-79
2022/04/12 12:24:12;;;;;;;10.77;6.47;;;21.90;99.90;;;;;;5006432;28;20198;-78
2022/04/12 12:26:41;;;;;;;11.23;6.43;;;22.00;99.90;;;;;;5007474;28;20238;-79
2022/04/12 12:29:10;;;;;;;10.05;6.30;;;22.00;99.90;;;;;;5006197;28;20215;-78
2022/04/12 12:31:46;;;;;;;8.65;6.30;;;22.20;99.90;;;;;;5006136;28;20282;-78
2022/04/12 12:34:27;;;;;;;10.40;6.90;;;22.10;99.90;;;;;;5006946;28;20242;-78
2022/04/12 12:36:55;;;;;;;8.35;6.00;;;22.20;99.90;;;;;;5006292;28;20266;-78
2022/04/12 12:39:22;;;;;;;11.65;7.15;;;22.20;99.90;;;;;;5007215;28;20261;-77
2022/04/12 12:41:55;;;;;;;7.25;6.28;;;22.30;99.90;;;;;;5008015;28;20202;-78
2022/04/12 12:44:23;;;;;;;9.90;5.45;;;22.20;99.90;;;;;;5007260;28;20195;-79
2022/04/12 12:46:55;;;;;;;9.90;6.53;;;22.40;99.90;;;;;;5006234;28;20198;-78
2022/04/12 12:49:22;;;;;;;10.50;6.18;;;22.50;99.90;;;;;;5023464;28;20276;-78
2022/04/12 12:51:49;;;;;;;8.02;5.65;;;22.50;99.90;;;;;;5011467;28;20211;-78
2022/04/12 12:54:19;;;;;;;7.53;5.43;;;22.50;99.90;;;;;;5005680;28;20230;-78
2022/04/12 12:56:48;;;;;;;8.57;5.20;;;22.60;99.90;;;;;;5006188;28;20294;-78